Time;durP1;ratioP1;P1;durP2;ratioP2;P2;SDS_P1;SDS_P2;PMS_P1;PMS_P2;Temp;Humidity;BMP_temperature;BMP_pressure;BME280_temperature;BME280_humidity;BME280_pressure;Samples;Min_cycle;Max_cycle;Signal;HPM_P1;HPM_P2
2022/07/10 00:01:04;;;;;;;7.13;4.97;;;;;;;21.87;60.82;99458.56;5082891;28;20053;-76
2022/07/10 00:03:29;;;;;;;8.57;5.25;;;;;;;21.89;60.92;99451.88;5087274;28;20052;-75
2022/07/10 00:05:55;;;;;;;7.15;4.72;;;;;;;21.79;60.99;99438.19;5083027;28;20066;-75
2022/07/10 00:08:20;;;;;;;7.95;5.03;;;;;;;21.82;60.87;99435.00;5064891;28;20222;-75
2022/07/10 00:10:45;;;;;;;6.63;4.80;;;;;;;21.78;61.12;99449.19;5082738;28;20036;-75
2022/07/10 00:13:11;;;;;;;7.07;4.97;;;;;;;21.54;62.24;99443.91;5083042;28;20036;-75
2022/07/10 00:15:36;;;;;;;6.47;5.30;;;;;;;21.57;62.20;99450.69;5089367;28;20042;-75
2022/07/10 00:18:02;;;;;;;7.35;6.03;;;;;;;21.61;62.24;99457.25;5101129;28;20047;-75
2022/07/10 00:20:27;;;;;;;10.20;5.90;;;;;;;21.68;62.21;99452.53;5085215;28;20046;-76
2022/07/10 00:22:53;;;;;;;10.40;6.47;;;;;;;21.68;62.10;99447.13;5081980;28;20349;-75
2022/07/10 00:25:18;;;;;;;8.70;6.47;;;;;;;21.67;62.13;99451.72;5081564;28;20028;-76
2022/07/10 00:27:44;;;;;;;11.88;6.43;;;;;;;21.56;62.41;99447.19;5083644;28;20313;-76
2022/07/10 00:30:10;;;;;;;10.55;6.93;;;;;;;21.64;62.23;99438.72;5081398;28;20029;-75
2022/07/10 00:32:36;;;;;;;7.68;6.40;;;;;;;21.64;62.12;99435.22;5082580;28;20273;-76
2022/07/10 00:35:03;;;;;;;11.85;7.32;;;;;;;21.53;62.49;99422.59;5085752;28;20044;-75
2022/07/10 00:37:29;;;;;;;8.98;7.55;;;;;;;21.59;62.55;99430.53;5086121;28;20073;-76
2022/07/10 00:39:54;;;;;;;11.95;7.18;;;;;;;21.53;62.74;99433.38;5082699;28;20048;-75
2022/07/10 00:42:21;;;;;;;9.82;7.45;;;;;;;21.58;62.55;99430.78;5081739;28;20052;-75
2022/07/10 00:44:47;;;;;;;8.75;6.07;;;;;;;21.62;62.31;99427.38;5082611;28;20028;-75
2022/07/10 00:47:14;;;;;;;9.50;5.90;;;;;;;21.70;62.17;99428.03;5083174;28;20031;-75
2022/07/10 00:49:39;;;;;;;10.18;5.85;;;;;;;21.85;61.17;99422.94;5082150;28;20036;-75
2022/07/10 00:52:11;;;;;;;8.55;5.47;;;;;;;21.76;61.70;99432.47;5083464;28;20382;-76
2022/07/10 00:54:41;;;;;;;7.68;5.80;;;;;;;21.68;61.92;99425.59;5082191;28;20094;-76
2022/07/10 00:57:06;;;;;;;7.97;5.40;;;;;;;21.92;61.01;99424.44;5081651;28;20067;-75
2022/07/10 00:59:33;;;;;;;8.52;5.97;;;;;;;21.81;61.28;99419.88;5083732;28;20052;-75
2022/07/10 01:01:58;;;;;;;6.20;5.57;;;;;;;21.78;61.39;99430.34;5083914;28;20032;-76
2022/07/10 01:04:24;;;;;;;10.00;5.93;;;;;;;21.81;61.06;99419.88;5082952;28;20345;-75
2022/07/10 01:06:50;;;;;;;8.45;5.45;;;;;;;21.86;60.82;99421.88;5081747;28;20090;-75
2022/07/10 01:09:15;;;;;;;7.35;5.45;;;;;;;21.81;60.73;99419.06;5079051;28;20028;-76
2022/07/10 01:11:41;;;;;;;7.28;5.53;;;;;;;21.91;60.04;99417.41;5081597;28;20090;-76
2022/07/10 01:14:07;;;;;;;10.30;5.88;;;;;;;21.85;60.40;99417.56;5082046;28;20075;-76
2022/07/10 01:16:32;;;;;;;7.43;4.82;;;;;;;21.90;59.96;99407.69;5081308;28;20264;-75
2022/07/10 01:18:58;;;;;;;7.68;5.22;;;;;;;21.83;60.00;99404.28;5082943;28;20039;-76
2022/07/10 01:21:34;;;;;;;7.97;5.60;;;;;;;21.81;60.10;99408.28;5081802;28;20024;-75
2022/07/10 01:24:06;;;;;;;6.32;5.20;;;;;;;21.89;59.49;99413.31;5082463;28;20035;-75
2022/07/10 01:26:31;;;;;;;8.45;5.30;;;;;;;21.78;59.85;99409.59;5079813;28;20090;-75
2022/07/10 01:28:59;;;;;;;7.57;5.53;;;;;;;21.84;59.57;99407.81;5062502;28;20029;-76
2022/07/10 01:31:26;;;;;;;10.40;5.80;;;;;;;21.72;60.11;99407.06;5082503;28;20058;-75
2022/07/10 01:33:53;;;;;;;7.05;5.90;;;;;;;21.86;59.78;99403.84;5081339;28;20048;-75
2022/07/10 01:36:20;;;;;;;9.02;5.93;;;;;;;21.81;59.85;99395.63;5079846;28;20260;-75
2022/07/10 01:38:46;;;;;;;7.93;6.18;;;;;;;21.73;60.35;99393.34;5081178;28;20040;-75
2022/07/10 01:41:11;;;;;;;12.20;6.45;;;;;;;21.68;60.32;99394.06;5081734;28;20258;-75
2022/07/10 01:43:37;;;;;;;8.25;6.80;;;;;;;21.78;60.06;99392.59;5081721;28;20041;-74
2022/07/10 01:46:04;;;;;;;7.65;6.32;;;;;;;21.71;60.51;99397.34;5083144;28;20037;-75
2022/07/10 01:48:30;;;;;;;7.68;6.78;;;;;;;21.67;60.19;99389.72;5081890;28;20120;-75
2022/07/10 01:50:56;;;;;;;11.85;6.63;;;;;;;21.65;60.42;99382.97;5083047;28;20052;-75
2022/07/10 01:53:22;;;;;;;11.20;7.07;;;;;;;21.50;60.94;99378.13;5066966;28;20032;-75
2022/07/10 01:55:48;;;;;;;11.60;7.43;;;;;;;21.65;60.74;99381.06;5084799;28;20281;-75
2022/07/10 01:58:13;;;;;;;8.95;6.88;;;;;;;21.54;61.27;99384.66;5086274;28;20326;-75
2022/07/10 02:00:38;;;;;;;8.35;6.95;;;;;;;21.49;61.46;99383.75;5084660;28;20033;-75
2022/07/10 02:05:48;;;;;;;11.32;7.63;;;;;;;21.29;62.50;99378.78;5085335;28;20353;-75
2022/07/10 02:08:13;;;;;;;9.88;7.68;;;;;;;21.39;62.16;99375.47;5083564;28;20037;-75
2022/07/10 02:10:39;;;;;;;12.27;8.20;;;;;;;21.25;62.47;99385.72;5084028;28;20089;-75
2022/07/10 02:13:04;;;;;;;9.32;8.10;;;;;;;21.30;62.95;99388.50;5085088;28;20028;-75
2022/07/10 02:15:30;;;;;;;10.25;7.72;;;;;;;21.37;62.29;99382.97;5069328;28;20038;-75
2022/07/10 02:17:55;;;;;;;12.00;8.38;;;;;;;21.40;62.06;99377.94;5084208;28;20191;-75
2022/07/10 02:20:21;;;;;;;15.45;8.57;;;;;;;21.11;63.38;99382.47;5084966;28;20038;-75
2022/07/10 02:22:46;;;;;;;9.43;7.70;;;;;;;21.26;62.99;99374.72;5085364;28;20114;-75
2022/07/10 02:25:11;;;;;;;9.68;8.32;;;;;;;21.10;63.50;99377.31;5083802;28;20037;-75
2022/07/10 02:27:37;;;;;;;10.10;8.65;;;;;;;21.10;63.24;99383.50;5083092;28;20077;-75
2022/07/10 02:30:02;;;;;;;8.52;7.70;;;;;;;20.97;63.76;99381.91;5084519;28;20032;-75
2022/07/10 02:32:28;;;;;;;9.88;8.35;;;;;;;21.10;63.53;99383.50;5084625;28;20036;-75
2022/07/10 02:34:53;;;;;;;9.43;8.43;;;;;;;21.16;63.57;99381.75;5084761;28;20033;-75
2022/07/10 02:37:19;;;;;;;12.90;9.20;;;;;;;21.05;63.97;99391.50;5085031;28;20396;-75
2022/07/10 02:39:44;;;;;;;11.20;9.25;;;;;;;21.19;63.25;99381.25;5084417;28;20036;-75
2022/07/10 02:42:10;;;;;;;11.30;8.13;;;;;;;21.04;63.91;99384.47;5086213;28;20059;-75
2022/07/10 02:44:35;;;;;;;12.05;9.25;;;;;;;21.04;63.72;99387.16;5085416;28;20048;-75
2022/07/10 02:47:00;;;;;;;13.90;9.35;;;;;;;20.92;64.12;99384.50;5084125;28;20314;-75
2022/07/10 02:49:26;;;;;;;10.45;8.00;;;;;;;20.98;63.86;99391.63;5084019;28;20097;-75
2022/07/10 02:51:52;;;;;;;13.75;8.15;;;;;;;20.82;64.10;99384.28;5084063;28;20237;-75
2022/07/10 02:54:18;;;;;;;12.38;7.93;;;;;;;20.82;64.02;99373.53;5084026;28;20400;-75
2022/07/10 02:56:43;;;;;;;10.52;7.47;;;;;;;20.90;63.36;99394.69;5083131;28;20033;-75
2022/07/10 02:59:09;;;;;;;9.80;7.40;;;;;;;20.99;63.26;99398.66;5081292;28;20055;-75
2022/07/10 03:01:34;;;;;;;11.23;6.90;;;;;;;21.07;62.39;99402.84;5083904;28;20043;-75
2022/07/10 03:04:01;;;;;;;10.45;7.30;;;;;;;20.93;62.89;99398.78;5086222;28;20273;-75
2022/07/10 03:06:26;;;;;;;9.70;7.32;;;;;;;20.98;62.70;99398.88;5082424;28;20032;-75
2022/07/10 03:08:52;;;;;;;13.70;8.15;;;;;;;20.82;63.52;99391.56;5084729;28;20118;-75
2022/07/10 03:11:17;;;;;;;8.95;8.00;;;;;;;21.02;62.84;99392.78;5083418;28;20183;-75
2022/07/10 03:13:43;;;;;;;10.38;8.57;;;;;;;20.90;63.14;99392.00;5083772;28;20400;-75
2022/07/10 03:16:08;;;;;;;10.38;8.15;;;;;;;20.89;63.31;99398.44;5082390;28;20093;-75
2022/07/10 03:18:34;;;;;;;10.02;7.55;;;;;;;20.90;63.26;99396.56;5081891;28;20029;-75
2022/07/10 03:20:59;;;;;;;10.35;7.68;;;;;;;20.72;63.74;99387.56;5083518;28;20032;-75
2022/07/10 03:23:25;;;;;;;11.75;8.48;;;;;;;20.60;64.38;99391.31;5085217;28;20230;-75
2022/07/10 03:25:51;;;;;;;14.40;7.50;;;;;;;20.60;64.44;99380.56;5083639;28;20361;-75
2022/07/10 03:28:16;;;;;;;9.38;8.38;;;;;;;20.80;63.79;99396.31;5082128;28;20036;-75
2022/07/10 03:30:42;;;;;;;10.48;7.78;;;;;;;20.90;63.49;99392.00;5082226;28;20037;-75
2022/07/10 03:33:07;;;;;;;14.88;7.93;;;;;;;20.88;63.31;99391.41;5083159;28;20054;-75
2022/07/10 03:35:33;;;;;;;10.75;7.68;;;;;;;20.73;63.85;99380.31;5084373;28;20039;-75
2022/07/10 03:37:59;;;;;;;9.45;7.28;;;;;;;20.84;63.58;99390.25;5083527;28;20042;-75
2022/07/10 03:40:26;;;;;;;8.70;7.28;;;;;;;20.84;63.27;99384.06;5082690;28;20070;-75
2022/07/10 03:42:51;;;;;;;10.25;7.63;;;;;;;20.61;64.24;99385.69;5085813;28;20392;-75
2022/07/10 03:45:17;;;;;;;14.05;7.90;;;;;;;20.78;63.69;99380.41;5082553;28;20032;-75
2022/07/10 03:47:42;;;;;;;9.50;7.57;;;;;;;20.58;64.54;99380.78;5083638;28;20025;-75
2022/07/10 03:50:09;;;;;;;10.48;7.93;;;;;;;20.63;64.74;99382.78;5083487;28;20075;-75
2022/07/10 03:52:34;;;;;;;10.70;8.73;;;;;;;20.64;64.94;99374.47;5083005;28;20139;-75
2022/07/10 03:55:00;;;;;;;13.00;8.98;;;;;;;20.64;64.84;99366.41;5084138;28;20312;-75
2022/07/10 04:00:11;;;;;;;13.38;8.98;;;;;;;20.60;65.48;99383.25;5081124;28;20233;-74
2022/07/10 04:02:37;;;;;;;12.80;9.25;;;;;;;20.67;65.33;99376.69;5083245;28;20059;-75
2022/07/10 04:05:08;;;;;;;11.95;8.65;;;;;;;20.68;65.45;99381.00;5082524;28;20036;-75
2022/07/10 04:07:34;;;;;;;12.68;9.02;;;;;;;20.68;65.76;99369.44;5081799;28;20040;-75
2022/07/10 04:10:00;;;;;;;11.63;8.70;;;;;;;20.68;65.56;99367.56;5083563;28;20044;-75
2022/07/10 04:12:26;;;;;;;11.18;9.35;;;;;;;20.73;65.63;99366.84;5082316;28;20222;-75
2022/07/10 04:14:51;;;;;;;14.07;9.55;;;;;;;20.92;65.24;99364.84;5083962;28;20031;-75
2022/07/10 04:17:17;;;;;;;13.15;9.45;;;;;;;20.95;64.88;99342.84;5082897;28;20113;-75
2022/07/10 04:19:43;;;;;;;12.63;9.55;;;;;;;21.13;64.80;99366.06;5087880;28;20031;-74
2022/07/10 04:22:09;;;;;;;10.85;9.20;;;;;;;21.19;64.61;99367.81;5101163;28;20221;-75
2022/07/10 04:24:35;;;;;;;15.35;9.45;;;;;;;21.38;63.88;99363.88;5093392;28;20028;-75
2022/07/10 04:27:00;;;;;;;12.25;9.80;;;;;;;21.35;63.68;99377.84;5081834;28;20032;-75
2022/07/10 04:29:26;;;;;;;13.32;9.38;;;;;;;21.67;63.08;99370.06;5083643;28;20047;-75
2022/07/10 04:31:51;;;;;;;11.82;9.80;;;;;;;21.71;62.52;99367.69;5082055;28;21116;-75
2022/07/10 04:34:17;;;;;;;14.18;10.70;;;;;;;21.68;62.80;99371.69;5081788;28;20028;-75
2022/07/10 04:36:43;;;;;;;12.02;9.45;;;;;;;21.73;62.50;99373.66;5083799;28;20334;-75
2022/07/10 04:39:08;;;;;;;12.23;9.73;;;;;;;21.85;61.99;99377.13;5064975;28;20345;-75
2022/07/10 04:41:34;;;;;;;13.43;9.20;;;;;;;21.94;61.59;99381.88;5065773;28;20043;-75
2022/07/10 04:43:59;;;;;;;14.02;9.50;;;;;;;22.18;60.80;99393.34;5083244;28;20075;-75
2022/07/10 04:46:25;;;;;;;15.57;9.00;;;;;;;22.32;60.00;99393.00;5084629;28;20028;-75
2022/07/10 04:48:51;;;;;;;13.43;9.02;;;;;;;22.44;59.83;99394.53;5083244;28;20039;-75
2022/07/10 04:51:16;;;;;;;9.60;8.35;;;;;;;22.30;60.30;99385.97;5082536;28;20071;-75
2022/07/10 04:53:42;;;;;;;16.20;8.10;;;;;;;22.22;59.56;99394.47;5082623;28;20222;-75
2022/07/10 04:56:08;;;;;;;15.45;8.60;;;;;;;22.28;59.68;99392.66;5082122;28;20528;-75
2022/07/10 04:58:33;;;;;;;12.05;8.30;;;;;;;22.33;59.55;99387.34;5083155;28;20265;-75
2022/07/10 05:00:58;;;;;;;11.63;7.88;;;;;;;22.60;58.70;99390.16;5082546;28;20032;-75
2022/07/10 05:03:24;;;;;;;10.00;7.18;;;;;;;22.90;57.63;99406.81;5082620;28;20021;-75
2022/07/10 05:05:49;;;;;;;11.15;7.82;;;;;;;23.15;56.59;99400.09;5082680;28;20066;-75
2022/07/10 05:08:15;;;;;;;10.27;7.57;;;;;;;23.26;56.30;99393.75;5083464;28;20509;-75
2022/07/10 05:10:40;;;;;;;9.98;7.45;;;;;;;23.52;55.82;99394.84;5081629;28;20035;-75
2022/07/10 05:13:06;;;;;;;9.30;7.53;;;;;;;23.54;55.47;99401.66;5082163;28;20036;-75
2022/07/10 05:15:32;;;;;;;11.95;7.47;;;;;;;23.72;55.29;99407.75;5065054;28;20055;-75
2022/07/10 05:17:57;;;;;;;11.75;7.78;;;;;;;23.66;54.33;99379.88;5083570;28;20095;-75
2022/07/10 05:20:23;;;;;;;11.38;7.13;;;;;;;23.79;54.86;99411.06;5082279;28;20040;-75
2022/07/10 05:22:48;;;;;;;10.20;7.35;;;;;;;24.07;54.17;99407.28;5083930;28;20025;-75
2022/07/10 05:25:14;;;;;;;10.10;7.25;;;;;;;24.11;54.18;99408.41;5080679;28;20125;-75
2022/07/10 05:27:39;;;;;;;9.50;6.88;;;;;;;24.30;53.31;99398.03;5080055;28;20226;-75
2022/07/10 05:30:05;;;;;;;13.02;7.55;;;;;;;24.18;53.82;99400.88;5085532;28;20032;-75
2022/07/10 05:32:30;;;;;;;10.63;7.03;;;;;;;24.04;53.97;99413.22;5103621;28;20183;-75
2022/07/10 05:34:59;;;;;;;12.02;7.40;;;;;;;24.21;54.00;99408.47;5097860;28;20256;-75
2022/07/10 05:37:24;;;;;;;10.75;7.32;;;;;;;24.27;53.62;99410.19;5085039;28;20033;-75
2022/07/10 05:39:50;;;;;;;12.30;7.25;;;;;;;24.44;53.52;99410.03;5084525;28;20389;-75
2022/07/10 05:42:15;;;;;;;8.57;6.65;;;;;;;24.78;52.46;99413.22;5085073;28;20036;-75
2022/07/10 05:44:41;;;;;;;11.88;6.65;;;;;;;25.16;51.90;99405.84;5087883;28;20257;-75
2022/07/10 05:47:06;;;;;;;10.82;6.82;;;;;;;25.25;51.41;99402.34;5086286;28;20245;-75
2022/07/10 05:49:32;;;;;;;7.70;6.90;;;;;;;25.50;50.71;99406.22;5084491;28;20033;-75
2022/07/10 05:51:58;;;;;;;8.30;6.80;;;;;;;25.09;50.96;99411.50;5085735;28;20028;-75
2022/07/10 05:54:23;;;;;;;8.90;6.72;;;;;;;24.98;51.71;99401.72;5083934;28;20065;-75
2022/07/10 05:56:49;;;;;;;9.85;7.20;;;;;;;25.08;51.51;99410.69;5068500;28;20025;-75
2022/07/10 05:59:14;;;;;;;8.32;6.95;;;;;;;24.71;51.79;99407.22;5085982;28;20059;-75
2022/07/10 06:01:40;;;;;;;10.38;7.15;;;;;;;24.51;52.66;99418.72;5085226;28;20078;-75
2022/07/10 06:04:06;;;;;;;7.63;6.85;;;;;;;24.43;53.07;99416.50;5086073;28;20040;-75
2022/07/10 06:06:31;;;;;;;9.13;6.72;;;;;;;24.32;53.51;99410.22;5087165;28;20028;-75
2022/07/10 06:08:58;;;;;;;9.25;6.55;;;;;;;24.45;53.44;99414.38;5087503;28;20032;-75
2022/07/10 06:11:24;;;;;;;9.90;6.80;;;;;;;24.68;53.21;99413.97;5087567;28;20028;-75
2022/07/10 06:13:49;;;;;;;8.50;6.60;;;;;;;24.89;52.58;99408.66;5083546;28;20113;-75
2022/07/10 06:16:15;;;;;;;9.40;6.97;;;;;;;25.50;51.51;99415.16;5082458;28;20029;-75
2022/07/10 06:18:40;;;;;;;17.17;6.93;;;;;;;26.09;49.84;99412.03;5085727;28;20244;-75
2022/07/10 06:21:06;;;;;;;8.57;6.20;;;;;;;26.01;48.70;99407.97;5083308;28;20056;-75
2022/07/10 06:23:31;;;;;;;9.10;6.07;;;;;;;26.04;48.90;99407.41;5083086;28;20033;-75
2022/07/10 06:25:57;;;;;;;10.32;6.10;;;;;;;25.81;49.36;99410.63;5085565;28;20028;-75
2022/07/10 06:28:22;;;;;;;9.25;6.30;;;;;;;25.84;49.74;99420.13;5086382;28;20097;-75
2022/07/10 06:30:48;;;;;;;8.48;6.32;;;;;;;25.60;50.67;99415.19;5084671;28;20251;-75
2022/07/10 06:33:13;;;;;;;6.88;5.85;;;;;;;25.62;50.00;99406.78;5082944;28;20082;-75
2022/07/10 06:35:38;;;;;;;8.18;7.03;;;;;;;25.61;49.94;99410.56;5083399;28;20038;-75
2022/07/10 06:38:04;;;;;;;6.95;6.13;;;;;;;25.86;49.19;99410.63;5084738;28;20032;-75
2022/07/10 06:40:37;;;;;;;8.77;6.30;;;;;;;25.70;49.51;99412.53;5085778;28;20032;-75
2022/07/10 06:43:03;;;;;;;7.60;5.95;;;;;;;25.49;49.09;99404.59;5083866;28;20406;-75
2022/07/10 06:45:29;;;;;;;11.40;5.63;;;;;;;25.34;49.66;99414.31;5083945;28;20032;-75
2022/07/10 06:47:58;;;;;;;7.47;5.80;;;;;;;25.51;50.39;99418.69;5082944;28;20087;-75
2022/07/10 06:50:32;;;;;;;6.93;6.22;;;;;;;26.06;49.05;99418.00;5082653;28;20318;-75
2022/07/10 06:52:58;;;;;;;7.80;5.63;;;;;;;26.56;47.88;99419.88;5084203;28;20335;-75
2022/07/10 06:55:25;;;;;;;8.40;5.32;;;;;;;26.82;46.52;99415.19;5085060;28;20265;-75
2022/07/10 06:57:51;;;;;;;9.27;6.00;;;;;;;27.13;46.55;99415.97;5084889;28;20032;-76
2022/07/10 07:00:16;;;;;;;9.07;5.80;;;;;;;27.33;45.99;99399.56;5084294;28;20041;-75
2022/07/10 07:02:42;;;;;;;8.15;5.82;;;;;;;27.58;44.61;99419.53;5083892;28;20214;-75
2022/07/10 07:05:08;;;;;;;11.32;5.65;;;;;;;27.25;46.16;99411.00;5086537;28;20223;-75
2022/07/10 07:07:35;;;;;;;8.00;5.68;;;;;;;26.85;46.98;99416.53;5082341;28;20511;-75
2022/07/10 07:10:01;;;;;;;10.68;6.03;;;;;;;26.60;47.25;99412.81;5082683;28;20139;-75
2022/07/10 07:12:26;;;;;;;7.63;5.65;;;;;;;26.50;47.51;99407.41;5084016;28;20020;-75
2022/07/10 07:14:52;;;;;;;15.50;6.03;;;;;;;27.03;46.80;99411.34;5083781;28;20048;-75
2022/07/10 07:17:25;;;;;;;9.88;5.40;;;;;;;27.04;46.61;99406.72;5083361;28;20047;-75
2022/07/10 07:25:20;;;;;;;8.55;5.75;;;;;;;27.24;46.38;99400.41;5083691;28;20100;-75
2022/07/10 07:27:46;;;;;;;11.45;6.03;;;;;;;27.39;46.45;99400.34;5087329;28;20206;-75
2022/07/10 07:30:16;;;;;;;6.47;5.50;;;;;;;27.38;45.07;99400.63;5083891;28;20044;-75
2022/07/10 07:32:43;;;;;;;9.65;5.63;;;;;;;27.57;45.33;99407.84;5086288;28;20399;-75
2022/07/10 07:35:12;;;;;;;10.07;5.47;;;;;;;27.81;44.43;99402.53;5083903;28;20029;-75
2022/07/10 07:37:42;;;;;;;8.93;5.45;;;;;;;27.82;44.17;99406.88;5083465;28;20036;-75
2022/07/10 07:40:12;;;;;;;13.63;6.03;;;;;;;28.04;44.24;99406.44;5082798;28;20036;-75
2022/07/10 07:42:38;;;;;;;6.03;5.43;;;;;;;28.54;42.70;99388.06;5082486;28;20064;-75
2022/07/10 07:45:04;;;;;;;7.35;5.50;;;;;;;28.90;41.95;99394.75;5083169;28;20385;-75
2022/07/10 07:47:31;;;;;;;7.85;5.70;;;;;;;29.00;41.16;99395.72;5083301;28;20038;-75
2022/07/10 07:49:57;;;;;;;7.10;5.03;;;;;;;29.22;40.83;99393.28;5083374;28;20226;-75
2022/07/10 07:52:22;;;;;;;7.53;5.05;;;;;;;29.44;39.67;99395.47;5084151;28;20034;-73
2022/07/10 07:54:48;;;;;;;7.03;5.38;;;;;;;29.41;39.97;99388.66;5085042;28;20040;-73
2022/07/10 07:57:14;;;;;;;5.85;5.20;;;;;;;29.28;40.61;99391.31;5082988;28;20059;-73
2022/07/10 07:59:40;;;;;;;6.68;5.53;;;;;;;29.21;41.05;99386.22;5084676;28;20044;-74
2022/07/10 08:02:06;;;;;;;6.22;5.03;;;;;;;29.24;40.65;99396.53;5083076;28;20024;-73
2022/07/10 08:04:31;;;;;;;5.60;4.88;;;;;;;28.88;40.58;99402.41;5085096;28;20036;-75
2022/07/10 08:06:57;;;;;;;9.05;5.47;;;;;;;28.41;41.06;99395.00;5085651;28;20034;-75
2022/07/10 08:09:22;;;;;;;6.75;5.00;;;;;;;28.03;41.33;99404.81;5083064;28;20033;-75
2022/07/10 08:11:48;;;;;;;8.55;5.13;;;;;;;27.91;41.77;99398.91;5082960;28;20024;-75
2022/07/10 08:14:14;;;;;;;5.10;4.50;;;;;;;27.92;42.63;99400.53;5082935;28;20020;-75
2022/07/10 08:16:40;;;;;;;5.65;5.03;;;;;;;28.15;42.51;99402.56;5082547;28;20195;-75
2022/07/10 08:19:06;;;;;;;6.30;4.93;;;;;;;27.91;41.73;99399.72;5081286;28;20046;-75
2022/07/10 08:21:32;;;;;;;7.00;4.95;;;;;;;27.82;42.26;99406.06;5081044;28;20036;-75
2022/07/10 08:23:58;;;;;;;6.75;5.10;;;;;;;27.78;42.78;99403.09;5081096;28;20078;-75
2022/07/10 08:26:24;;;;;;;6.93;5.07;;;;;;;27.80;43.08;99391.94;5082085;28;20033;-75
2022/07/10 08:28:49;;;;;;;5.72;4.88;;;;;;;27.85;43.57;99400.88;5082634;28;20093;-75
2022/07/10 08:31:15;;;;;;;8.70;6.20;;;;;;;27.74;43.85;99404.75;5082536;28;20024;-75
2022/07/10 08:33:40;;;;;;;14.60;11.07;;;;;;;27.40;44.51;99395.72;5084176;28;20036;-75
2022/07/10 08:36:06;;;;;;;10.20;6.97;;;;;;;27.28;45.11;99407.72;5083101;28;20021;-75
2022/07/10 08:38:31;;;;;;;81.20;49.80;;;;;;;27.43;44.92;99401.41;5082073;28;20036;-75
2022/07/10 08:40:59;;;;;;;71.18;41.22;;;;;;;27.37;44.77;99396.28;5083019;28;20330;-75
2022/07/10 08:43:25;;;;;;;14.65;10.57;;;;;;;27.17;45.11;99408.06;5083467;28;20069;-74
2022/07/10 08:45:53;;;;;;;23.85;13.25;;;;;;;27.14;45.30;99411.34;5083739;28;20291;-75
2022/07/10 08:48:23;;;;;;;13.52;7.43;;;;;;;27.08;46.44;99401.56;5082394;28;20101;-75
2022/07/10 08:50:52;;;;;;;8.77;6.15;;;;;;;27.15;45.92;99410.25;5085862;28;20090;-75
2022/07/10 08:53:32;;;;;;;6.57;5.43;;;;;;;27.07;45.55;99414.34;5083245;28;20040;-75
2022/07/10 08:56:00;;;;;;;12.65;6.43;;;;;;;26.82;45.98;99411.66;5083257;28;20033;-75
2022/07/10 08:58:27;;;;;;;6.95;5.85;;;;;;;26.93;45.72;99416.78;5081999;28;20036;-75
2022/07/10 09:00:53;;;;;;;9.23;5.68;;;;;;;27.04;46.02;99412.97;5081435;28;20065;-75
2022/07/10 09:03:19;;;;;;;6.13;5.53;;;;;;;27.01;45.42;99407.28;5082723;28;20071;-75
2022/07/10 09:05:46;;;;;;;7.00;5.30;;;;;;;26.94;45.71;99410.25;5086908;28;20032;-75
2022/07/10 09:08:28;;;;;;;7.75;5.20;;;;;;;26.79;45.77;99401.34;5085753;28;20048;-75
2022/07/10 09:11:13;;;;;;;22.05;5.57;;;;;;;26.57;45.81;99412.56;5086665;28;21342;-75
2022/07/10 09:14:15;;;;;;;10.45;5.22;;;;;;;26.73;45.72;99414.94;5087551;28;20035;-75
2022/07/10 09:16:43;;;;;;;13.30;5.78;;;;;;;26.60;46.48;99422.88;5005978;28;20134;-75
2022/07/10 09:19:17;;;;;;;9.15;6.45;;;;;;;26.42;47.78;99426.16;5073102;28;20059;-75
2022/07/10 09:21:45;;;;;;;12.43;7.07;;;;;;;26.27;49.21;99422.34;5085964;28;20445;-75
2022/07/10 09:24:10;;;;;;;7.53;6.40;;;;;;;26.12;49.44;99425.06;5085715;28;20226;-75
2022/07/10 09:26:37;;;;;;;7.47;6.13;;;;;;;26.12;48.88;99432.38;5086339;28;20032;-75
2022/07/10 09:29:12;;;;;;;7.82;6.45;;;;;;;26.27;48.49;99424.22;5086464;28;20028;-75
2022/07/10 09:31:57;;;;;;;6.80;6.10;;;;;;;26.15;49.27;99432.66;5085768;28;20183;-75
2022/07/10 09:34:45;;;;;;;14.30;7.28;;;;;;;26.13;49.76;99428.59;5085932;28;20036;-75
2022/07/10 09:37:28;;;;;;;11.48;8.05;;;;;;;26.06;50.10;99424.25;5086353;28;20380;-75
2022/07/10 09:39:54;;;;;;;9.10;7.65;;;;;;;25.98;49.92;99432.88;5086793;28;20079;-75
2022/07/10 09:42:34;;;;;;;9.32;8.15;;;;;;;26.08;50.32;99434.81;5085524;28;20226;-75
2022/07/10 09:45:17;;;;;;;8.90;7.00;;;;;;;26.04;49.93;99426.41;5089176;28;20020;-75
2022/07/10 09:47:55;;;;;;;8.82;6.20;;;;;;;25.86;48.74;99426.09;5083736;28;20036;-75
2022/07/10 09:50:22;;;;;;;9.77;5.95;;;;;;;26.12;47.58;99427.78;5065701;28;20032;-75
2022/07/10 09:52:50;;;;;;;10.10;5.63;;;;;;;26.20;51.31;99429.13;5086551;28;20105;-75
2022/07/10 09:55:19;;;;;;;5.93;3.50;;;;;;;26.06;43.95;99428.84;5083755;28;20021;-75
2022/07/10 09:57:48;;;;;;;6.38;4.45;;;;;;;26.13;46.95;99428.59;5083616;28;20055;-74
2022/07/10 10:00:13;;;;;;;6.22;5.28;;;;;;;26.44;47.10;99421.25;5082932;28;20317;-75
2022/07/10 10:02:39;;;;;;;6.03;5.43;;;;;;;26.37;47.28;99426.97;5084446;28;20031;-75
2022/07/10 10:05:05;;;;;;;7.45;4.70;;;;;;;26.42;46.43;99426.16;5084038;28;20257;-75
2022/07/10 10:07:35;;;;;;;5.43;4.93;;;;;;;26.43;44.84;99425.88;5083180;28;20033;-75
2022/07/10 10:10:01;;;;;;;6.65;5.32;;;;;;;26.53;47.23;99427.75;5084370;28;20043;-75
2022/07/10 10:12:35;;;;;;;7.55;6.68;;;;;;;26.52;46.57;99424.22;5086243;28;20220;-75
2022/07/10 10:15:01;;;;;;;15.02;6.65;;;;;;;26.44;47.67;99421.25;5066293;28;20283;-75
2022/07/10 10:17:28;;;;;;;10.10;6.70;;;;;;;26.46;47.52;99402.81;5085327;28;20032;-74
2022/07/10 10:22:43;;;;;;;12.90;7.47;;;;;;;26.56;47.88;99410.91;5086475;28;20077;-75
2022/07/10 10:25:10;;;;;;;8.98;7.13;;;;;;;26.49;49.02;99415.81;5084813;28;20070;-75
2022/07/10 10:27:36;;;;;;;15.30;6.93;;;;;;;26.50;48.74;99412.03;5083389;28;20261;-75
2022/07/10 10:30:02;;;;;;;9.80;6.50;;;;;;;26.76;48.39;99408.16;5083572;28;20040;-75
2022/07/10 10:32:28;;;;;;;7.18;6.10;;;;;;;26.84;47.09;99399.44;5085883;28;20043;-75
2022/07/10 10:35:09;;;;;;;12.70;6.40;;;;;;;27.02;47.20;99406.19;5269259;22;20259;-68
2022/07/10 10:37:44;;;;;;;7.25;5.57;;;;;;;27.14;44.78;99404.00;5114040;28;20352;-68
2022/07/10 10:40:30;;;;;;;9.15;4.82;;;;;;;27.23;42.29;99398.78;5124424;28;20043;-68
2022/07/10 10:42:55;;;;;;;7.70;4.82;;;;;;;27.33;43.85;99391.41;5124627;27;20273;-69
2022/07/10 10:45:31;;;;;;;4.68;4.18;;;;;;;27.48;41.87;99393.22;5124640;28;20053;-68
2022/07/10 10:48:00;;;;;;;7.97;4.70;;;;;;;27.64;40.45;99383.88;5124769;28;20037;-69
2022/07/10 10:50:39;;;;;;;9.20;4.72;;;;;;;27.80;41.54;99394.66;5124592;28;20042;-68
2022/07/10 10:53:05;;;;;;;4.80;4.22;;;;;;;27.69;39.46;99385.75;5124584;28;20034;-68
2022/07/10 10:55:30;;;;;;;8.95;5.07;;;;;;;27.82;39.60;99384.31;5124564;28;20078;-69
2022/07/10 10:58:14;;;;;;;6.15;4.50;;;;;;;27.94;40.30;99380.13;5124543;28;20039;-68
2022/07/10 11:00:42;;;;;;;7.03;4.55;;;;;;;27.95;40.16;99387.19;5124267;28;20047;-69
2022/07/10 11:03:15;;;;;;;6.22;4.63;;;;;;;28.21;38.63;99387.00;5124536;28;20257;-68
2022/07/10 11:05:44;;;;;;;4.95;4.25;;;;;;;28.33;37.98;99373.84;5123812;28;20031;-68
2022/07/10 11:08:11;;;;;;;5.03;4.38;;;;;;;28.52;37.46;99379.34;5118139;28;20090;-68
2022/07/10 11:10:39;;;;;;;4.68;4.18;;;;;;;28.26;39.87;99376.09;5124360;28;20266;-68
2022/07/10 11:13:13;;;;;;;4.53;4.05;;;;;;;28.43;36.21;99375.66;5118096;28;20023;-68
2022/07/10 11:15:40;;;;;;;4.60;4.20;;;;;;;28.69;36.11;99365.28;5123889;28;20096;-68
2022/07/10 11:18:11;;;;;;;6.57;4.60;;;;;;;28.60;37.55;99349.56;5124062;28;20027;-68
2022/07/10 11:20:42;;;;;;;5.25;4.18;;;;;;;28.98;38.18;99348.88;5123921;28;20070;-68
2022/07/10 11:23:25;;;;;;;8.02;4.45;;;;;;;28.80;37.04;99348.53;5124098;28;20031;-69
2022/07/10 11:26:01;;;;;;;4.35;3.85;;;;;;;28.91;36.12;99327.44;5123110;28;20070;-68
2022/07/10 11:28:51;;;;;;;8.25;3.78;;;;;;;28.84;37.07;99346.06;5113306;28;20047;-68
2022/07/10 11:31:18;;;;;;;6.40;3.60;;;;;;;28.87;36.57;99342.75;5106697;28;20356;-68
2022/07/10 11:33:46;;;;;;;7.75;4.47;;;;;;;28.46;35.90;99343.19;5102436;28;20035;-68
2022/07/10 11:36:21;;;;;;;4.80;4.13;;;;;;;28.51;36.25;99336.88;5101308;28;20051;-69
2022/07/10 11:38:47;;;;;;;3.75;3.35;;;;;;;28.49;36.58;99341.81;5103993;28;20043;-68
2022/07/10 11:41:22;;;;;;;4.32;3.92;;;;;;;28.48;35.77;99324.66;5102548;28;20217;-68
2022/07/10 11:43:50;;;;;;;4.72;3.50;;;;;;;28.44;35.79;99328.25;5102683;28;20032;-68